< < Back
Terminal Aerodrome Forecast


Current Version              Previous Versions:   1  2  3  4  5  6  7  8  9  

Terminal Aerodrome Forecast

813
FTUS42 KMLB 301700 RRA
TAFDAB
TAF
KDAB 301747Z 3018/3118 12009KT P6SM SCT040 SCT250
     FM302200 12005KT P6SM SCT060 BKN100
     FM310000 14003KT P6SM SCT100
     FM310800 00000KT P6SM FEW100=

Latest METAR

355
SAUS80 KWBC 302000
MTRDAB
METAR KDAB 301953Z 11007KT 10SM FEW032CB FEW250 31/25 A3009 RMK AO2
SLP188 CB S-SW MOV W TCU W-NW CB DSNT S T03110250


USA.gov is the U.S. government's official web portal to all federal, state and local government web resources and services.